createdAt,value
2018-03-21T00:01:24.098Z,57.85
2018-03-21T00:03:54.631Z,57.80
2018-03-21T00:06:24.312Z,58.12
2018-03-21T00:08:54.175Z,58.54
2018-03-21T00:11:23.889Z,58.69
2018-03-21T00:13:53.657Z,58.65
2018-03-21T00:16:23.453Z,58.54
2018-03-21T00:18:54.012Z,58.46
2018-03-21T00:21:23.758Z,58.62
2018-03-21T00:23:53.479Z,58.90
2018-03-21T00:26:23.141Z,58.89
2018-03-21T00:28:53.052Z,59.19
2018-03-21T00:31:22.802Z,59.33
2018-03-21T00:33:53.276Z,59.78
2018-03-21T00:36:23.085Z,59.60
2018-03-21T00:38:52.811Z,59.75
2018-03-21T00:41:22.680Z,59.85
2018-03-21T00:43:52.500Z,59.83
2018-03-21T00:46:22.229Z,59.63
2018-03-21T00:48:52.042Z,59.56
2018-03-21T00:51:21.795Z,59.75
2018-03-21T00:53:52.289Z,60.07
2018-03-21T00:56:21.968Z,59.86
2018-03-21T00:58:52.576Z,60.25
2018-03-21T01:01:22.301Z,60.34
2018-03-21T01:03:51.968Z,60.74
2018-03-21T01:06:21.802Z,60.87
2018-03-21T01:08:51.586Z,61.00
2018-03-21T01:11:21.378Z,61.15
2018-03-21T01:13:51.180Z,61.34
2018-03-21T01:16:20.972Z,61.43
2018-03-21T01:18:50.946Z,61.60
2018-03-21T01:21:20.635Z,61.72
2018-03-21T01:23:50.375Z,61.61
2018-03-21T01:26:20.157Z,61.51
2018-03-21T01:28:50.755Z,61.57
2018-03-21T01:31:20.584Z,61.55
2018-03-21T01:33:50.282Z,60.98
2018-03-21T01:36:20.020Z,60.72
2018-03-21T01:38:49.798Z,60.48
2018-03-21T01:41:19.604Z,60.79
2018-03-21T01:43:50.129Z,60.65
2018-03-21T01:46:19.856Z,60.80
2018-03-21T01:48:49.560Z,60.84
2018-03-21T01:51:19.276Z,61.05
2018-03-21T01:53:49.294Z,61.10
2018-03-21T01:56:19.123Z,61.49
2018-03-21T01:58:48.845Z,61.67
2018-03-21T02:01:18.514Z,62.01
2018-03-21T02:03:49.069Z,62.10
2018-03-21T02:06:18.832Z,62.22
2018-03-21T02:08:48.750Z,62.41
2018-03-21T02:11:18.543Z,62.46
2018-03-21T02:13:48.209Z,62.64
2018-03-21T02:16:18.116Z,62.66
2018-03-21T02:18:47.888Z,62.69
2018-03-21T02:21:18.345Z,62.47
2018-03-21T02:23:48.033Z,63.34
2018-03-21T02:26:17.801Z,63.43
2018-03-21T02:28:47.525Z,63.51
2018-03-21T02:31:17.213Z,63.68
2018-03-21T02:33:47.897Z,63.73
2018-03-21T02:36:17.584Z,63.90
2018-03-21T02:38:48.147Z,63.97
2018-03-21T02:41:17.912Z,64.23
2018-03-21T02:43:47.649Z,64.29
2018-03-21T02:46:17.381Z,64.26
2018-03-21T02:48:47.942Z,64.19
2018-03-21T02:51:17.787Z,64.41
2018-03-21T02:53:47.464Z,64.67
2018-03-21T02:56:17.977Z,65.03
2018-03-21T02:58:48.068Z,65.40
2018-03-21T03:01:17.862Z,65.64
2018-03-21T03:03:48.427Z,65.51
2018-03-21T03:06:19.301Z,65.78
2018-03-21T03:08:49.094Z,66.02
2018-03-21T03:11:18.860Z,65.55
2018-03-21T03:13:49.368Z,66.26
2018-03-21T03:16:19.024Z,66.37
2018-03-21T03:18:48.814Z,66.16
2018-03-21T03:21:18.563Z,66.12
2018-03-21T03:23:48.392Z,66.27
2018-03-21T03:26:18.101Z,66.39
2018-03-21T03:28:48.560Z,66.33
2018-03-21T03:31:18.228Z,66.27
2018-03-21T03:33:47.981Z,66.04
2018-03-21T03:36:17.758Z,66.64
2018-03-21T03:38:48.320Z,66.78
2018-03-21T03:41:18.210Z,66.77
2018-03-21T03:43:48.011Z,66.50
2018-03-21T03:46:17.692Z,67.30
2018-03-21T03:48:47.813Z,68.49
2018-03-21T03:51:17.720Z,69.19
2018-03-21T03:53:49.512Z,69.86
2018-03-21T03:56:19.780Z,71.02
2018-03-21T03:58:49.678Z,71.41
2018-03-21T04:01:19.482Z,71.89
2018-03-21T04:03:50.828Z,72.23
2018-03-21T04:06:20.717Z,72.37
2018-03-21T04:08:50.558Z,71.66
2018-03-21T04:11:20.603Z,72.01
2018-03-21T04:13:50.370Z,72.39
2018-03-21T04:16:20.066Z,73.01
2018-03-21T04:18:50.540Z,73.47
2018-03-21T04:21:20.336Z,74.86
2018-03-21T04:23:50.090Z,75.63
2018-03-21T04:26:19.811Z,77.30
2018-03-21T04:28:49.806Z,77.65
2018-03-21T04:31:19.488Z,77.70
2018-03-21T04:33:49.410Z,79.51
2018-03-21T04:36:19.108Z,80.20
2018-03-21T04:38:48.876Z,79.97
2018-03-21T04:41:19.423Z,80.57
2018-03-21T04:43:49.974Z,80.76
2018-03-21T04:46:19.733Z,80.58
2018-03-21T04:48:49.707Z,80.83
2018-03-21T04:51:20.241Z,81.10
2018-03-21T04:53:50.847Z,80.82
2018-03-21T04:56:20.612Z,81.00
2018-03-21T04:58:51.167Z,80.82
2018-03-21T05:01:20.917Z,80.48
2018-03-21T05:03:50.772Z,80.05
2018-03-21T05:06:20.515Z,79.96
2018-03-21T05:08:51.141Z,80.14
2018-03-21T05:11:20.917Z,80.29
2018-03-21T05:13:50.959Z,81.01
2018-03-21T05:16:20.727Z,81.42
2018-03-21T05:18:50.575Z,81.41
2018-03-21T05:21:20.245Z,81.11
2018-03-21T05:23:49.991Z,81.17
2018-03-21T05:26:19.780Z,81.73
2018-03-21T05:28:49.677Z,81.66
2018-03-21T05:31:19.356Z,81.69
2018-03-21T05:33:49.364Z,81.44
2018-03-21T05:36:19.100Z,81.53
2018-03-21T05:38:49.588Z,81.26
2018-03-21T05:41:19.341Z,80.44
2018-03-21T05:43:49.107Z,80.56
2018-03-21T05:46:19.589Z,80.24
2018-03-21T05:48:49.328Z,80.78
2018-03-21T05:51:19.144Z,80.93
2018-03-21T05:53:48.812Z,81.02
2018-03-21T05:56:18.576Z,80.83
2018-03-21T05:58:48.321Z,79.81
2018-03-21T06:01:18.095Z,79.63
2018-03-21T06:03:47.834Z,79.55
2018-03-21T06:06:17.688Z,80.04
2018-03-21T06:08:47.482Z,79.87
2018-03-21T06:11:17.414Z,79.68
2018-03-21T06:13:47.130Z,79.36
2018-03-21T06:16:16.820Z,78.87
2018-03-21T06:18:47.349Z,78.87
2018-03-21T06:21:17.076Z,78.71
2018-03-21T06:23:53.306Z,78.51
2018-03-21T06:26:23.128Z,78.02
2018-03-21T06:28:52.809Z,77.90
2018-03-21T06:31:22.514Z,77.85
2018-03-21T06:33:53.086Z,77.90
2018-03-21T06:36:22.837Z,77.68
2018-03-21T06:38:52.601Z,77.80
2018-03-21T06:41:23.067Z,77.55
2018-03-21T06:43:52.859Z,77.54
2018-03-21T06:46:23.313Z,77.35
2018-03-21T06:48:53.245Z,77.42
2018-03-21T06:51:22.965Z,77.52
2018-03-21T06:53:52.671Z,77.93
2018-03-21T06:56:23.180Z,77.59
2018-03-21T06:58:52.896Z,77.63
2018-03-21T07:01:22.652Z,77.00
2018-03-21T07:03:53.252Z,76.97
2018-03-21T07:06:22.940Z,76.78
2018-03-21T07:08:52.673Z,76.73
2018-03-21T07:11:22.391Z,76.87
2018-03-21T07:15:06.390Z,76.19
2018-03-21T07:17:36.128Z,76.09
2018-03-21T07:20:06.734Z,76.23
2018-03-21T07:22:36.454Z,76.07
2018-03-21T07:25:06.307Z,76.10
2018-03-21T07:27:36.123Z,76.25
2018-03-21T07:30:06.129Z,75.86
2018-03-21T07:32:36.032Z,75.47
2018-03-21T07:35:06.097Z,75.58
2018-03-21T07:37:36.038Z,75.32
2018-03-21T07:40:06.152Z,74.80
2018-03-21T07:42:35.984Z,75.56
2018-03-21T07:45:05.792Z,76.13
2018-03-21T07:47:35.581Z,75.66
2018-03-21T07:50:06.115Z,75.30
2018-03-21T07:52:36.598Z,75.84
2018-03-21T07:55:06.393Z,75.76
2018-03-21T07:57:36.088Z,75.77
2018-03-21T08:00:05.944Z,75.72
2018-03-21T08:02:35.860Z,75.41
2018-03-21T08:05:05.781Z,74.86
2018-03-21T08:07:35.500Z,74.46
2018-03-21T08:10:05.300Z,74.39
2018-03-21T08:12:35.811Z,74.36
2018-03-21T08:15:05.872Z,73.80
2018-03-21T08:17:36.398Z,73.72
2018-03-21T08:20:06.231Z,73.50
2018-03-21T08:22:35.986Z,73.68
2018-03-21T08:25:05.900Z,74.19
2018-03-21T08:27:35.737Z,74.70
2018-03-21T08:30:05.516Z,74.55
2018-03-21T08:32:35.282Z,74.23
2018-03-21T08:35:05.240Z,74.01
2018-03-21T08:37:34.986Z,73.68
2018-03-21T08:40:04.801Z,73.41
2018-03-21T08:42:34.724Z,73.16
2018-03-21T08:45:04.590Z,72.73
2018-03-21T08:47:34.391Z,72.42
2018-03-21T08:50:04.214Z,72.55
2018-03-21T08:52:33.998Z,72.41
2018-03-21T08:55:03.813Z,72.31
2018-03-21T08:57:33.562Z,72.25
2018-03-21T09:00:03.563Z,72.63
2018-03-21T09:02:33.289Z,72.71
2018-03-21T09:05:03.024Z,72.30
2018-03-21T09:07:32.822Z,71.49
2018-03-21T09:10:02.560Z,71.53
2018-03-21T09:12:32.382Z,71.32
2018-03-21T09:15:02.107Z,70.89
2018-03-21T09:17:31.845Z,71.38
2018-03-21T09:20:01.589Z,71.72
2018-03-21T09:22:31.441Z,72.59
2018-03-21T09:25:01.196Z,72.71
2018-03-21T09:27:31.023Z,72.87
2018-03-21T09:30:00.675Z,72.59
2018-03-21T09:32:30.566Z,72.41
2018-03-21T09:35:00.316Z,72.43
2018-03-21T09:37:30.099Z,72.39
2018-03-21T09:39:59.919Z,72.27
2018-03-21T09:42:29.720Z,72.72
2018-03-21T09:45:00.357Z,72.85
2018-03-21T09:47:31.048Z,72.94
2018-03-21T09:50:00.788Z,73.16
2018-03-21T09:52:30.501Z,72.89
2018-03-21T09:55:00.351Z,72.34
2018-03-21T09:57:30.112Z,71.85
2018-03-21T09:59:59.794Z,70.99
2018-03-21T10:02:29.519Z,70.43
2018-03-21T10:04:59.266Z,69.27
2018-03-21T10:07:29.777Z,67.64
2018-03-21T10:09:59.583Z,67.43
2018-03-21T10:12:29.384Z,67.12
2018-03-21T10:14:59.237Z,67.13
2018-03-21T10:17:29.268Z,66.57
2018-03-21T10:19:59.005Z,66.74
2018-03-21T10:22:28.944Z,66.66
2018-03-21T10:24:59.439Z,66.35
2018-03-21T10:27:29.249Z,65.90
2018-03-21T10:29:58.935Z,64.60
2018-03-21T10:32:28.679Z,64.21
2018-03-21T10:34:58.525Z,63.20
2018-03-21T10:37:28.221Z,62.81
2018-03-21T10:39:58.037Z,62.95
2018-03-21T10:42:27.902Z,63.00
2018-03-21T10:44:57.891Z,63.06
2018-03-21T10:47:28.356Z,62.45
2018-03-21T10:49:58.329Z,62.44
2018-03-21T10:52:38.777Z,62.34
2018-03-21T10:54:57.808Z,63.44
2018-03-21T10:57:27.564Z,63.32
2018-03-21T10:59:57.401Z,63.05
2018-03-21T11:02:31.179Z,62.96
2018-03-21T11:05:00.928Z,62.66
2018-03-21T11:07:30.699Z,62.96
2018-03-21T11:10:01.185Z,63.58
2018-03-21T11:12:30.977Z,63.42
2018-03-21T11:15:00.745Z,63.22
2018-03-21T11:17:30.640Z,63.17
2018-03-21T11:20:00.531Z,62.92
2018-03-21T11:22:31.164Z,62.36
2018-03-21T11:25:01.655Z,61.96
2018-03-21T11:27:31.341Z,61.76
2018-03-21T11:30:01.913Z,61.25
2018-03-21T11:32:31.609Z,61.08
2018-03-21T11:35:01.349Z,60.67
2018-03-21T11:37:31.320Z,59.86
2018-03-21T11:40:01.153Z,59.14
2018-03-21T11:42:31.066Z,59.10
2018-03-21T11:45:00.864Z,58.88
2018-03-21T11:47:31.721Z,58.42
2018-03-21T11:50:01.499Z,58.45
2018-03-21T11:52:31.237Z,59.27
2018-03-21T11:55:00.973Z,58.92
2018-03-21T11:57:30.708Z,58.70
2018-03-21T12:00:00.435Z,58.44
2018-03-21T12:02:30.203Z,58.38
2018-03-21T12:05:00.705Z,58.87
2018-03-21T12:07:30.848Z,58.71
2018-03-21T12:10:00.810Z,57.95
2018-03-21T12:12:30.577Z,58.10
2018-03-21T12:15:00.473Z,57.69
2018-03-21T12:17:30.232Z,57.79
2018-03-21T12:19:59.994Z,57.58
2018-03-21T12:22:29.841Z,58.07
2018-03-21T12:24:59.588Z,57.54
2018-03-21T12:27:29.304Z,57.38
2018-03-21T12:29:59.080Z,58.16
2018-03-21T12:32:29.568Z,58.14
2018-03-21T12:34:59.452Z,58.36
2018-03-21T12:37:29.209Z,57.10
2018-03-21T12:39:58.913Z,57.83
2018-03-21T12:42:28.727Z,55.67
2018-03-21T12:44:58.560Z,54.63
2018-03-21T12:47:28.299Z,53.63
2018-03-21T12:49:58.112Z,53.50
2018-03-21T12:52:27.760Z,53.97
2018-03-21T12:54:57.624Z,55.28
2018-03-21T12:57:28.205Z,54.06
2018-03-21T12:59:57.985Z,52.49
2018-03-21T13:02:28.604Z,52.95
2018-03-21T13:04:58.496Z,53.97
2018-03-21T13:07:28.617Z,53.23
2018-03-21T13:09:58.322Z,52.73
2018-03-21T13:12:28.148Z,56.10
2018-03-21T13:14:57.906Z,53.94
2018-03-21T13:17:27.663Z,52.16
2018-03-21T13:19:57.425Z,52.96
2018-03-21T13:22:27.304Z,54.03
2018-03-21T13:24:57.030Z,53.23
2018-03-21T13:27:26.892Z,52.89
2018-03-21T13:29:56.713Z,53.79
2018-03-21T13:32:26.437Z,53.94
2018-03-21T13:34:56.216Z,54.37
2018-03-21T13:37:26.024Z,54.35
2018-03-21T13:39:55.792Z,54.59
2018-03-21T13:42:26.296Z,55.31
2018-03-21T13:44:56.069Z,55.79
2018-03-21T13:47:25.782Z,55.93
2018-03-21T13:49:55.604Z,55.53
2018-03-21T13:52:25.382Z,55.41
2018-03-21T13:54:55.076Z,55.22
2018-03-21T13:57:24.922Z,55.30
2018-03-21T13:59:54.639Z,54.77
2018-03-21T14:02:24.409Z,54.58
2018-03-21T14:04:55.018Z,54.02
2018-03-21T14:07:24.752Z,53.12
2018-03-21T14:09:54.527Z,52.79
2018-03-21T14:12:24.240Z,52.58
2018-03-21T14:14:53.960Z,52.25
2018-03-21T14:17:23.845Z,52.42
2018-03-21T14:19:53.620Z,52.51
2018-03-21T14:22:23.736Z,53.17
2018-03-21T14:24:53.587Z,53.08
2018-03-21T14:27:23.493Z,52.97
2018-03-21T14:29:53.365Z,52.95
2018-03-21T14:32:23.082Z,52.73
2018-03-21T14:34:53.089Z,53.16
2018-03-21T14:37:22.970Z,53.45
2018-03-21T14:39:53.386Z,53.67
2018-03-21T14:42:23.158Z,53.94
2018-03-21T14:44:53.180Z,53.86
2018-03-21T14:47:22.906Z,53.79
2018-03-21T14:49:52.744Z,53.82
2018-03-21T14:52:22.677Z,53.80
2018-03-21T14:54:52.676Z,54.11
2018-03-21T14:57:22.392Z,53.73
2018-03-21T14:59:52.183Z,54.03
2018-03-21T15:02:22.196Z,54.19
2018-03-21T15:04:52.027Z,54.13
2018-03-21T15:07:21.903Z,54.16
2018-03-21T15:09:51.908Z,54.16
2018-03-21T15:12:23.282Z,54.29
2018-03-21T15:14:53.177Z,54.22
2018-03-21T15:17:23.684Z,54.27
2018-03-21T15:19:53.501Z,54.17
2018-03-21T15:22:23.226Z,54.14
2018-03-21T15:24:54.016Z,53.51
2018-03-21T15:27:24.628Z,53.26
2018-03-21T15:29:54.385Z,53.38
2018-03-21T15:32:24.116Z,52.93
2018-03-21T15:34:53.834Z,52.63
2018-03-21T15:37:23.800Z,52.74
2018-03-21T15:39:53.474Z,52.90
2018-03-21T15:42:24.142Z,53.22
2018-03-21T15:44:55.326Z,53.00
2018-03-21T15:47:25.086Z,53.17
2018-03-21T15:49:55.593Z,53.25
2018-03-21T15:52:25.453Z,53.12
2018-03-21T15:54:56.114Z,52.91
2018-03-21T15:57:25.924Z,53.20
2018-03-21T15:59:56.460Z,52.65
2018-03-21T16:02:27.013Z,53.21
2018-03-21T16:04:56.772Z,53.86
2018-03-21T16:07:27.310Z,54.06
2018-03-21T16:09:57.290Z,54.29
2018-03-21T16:12:28.020Z,54.18
2018-03-21T16:14:57.806Z,53.92
2018-03-21T16:17:27.520Z,53.53
2018-03-21T16:19:58.441Z,53.60
2018-03-21T16:22:28.922Z,53.63
2018-03-21T16:24:58.889Z,53.85
2018-03-21T16:27:29.379Z,54.08
2018-03-21T16:29:59.415Z,53.93
2018-03-21T16:32:29.431Z,54.11
2018-03-21T16:34:59.192Z,54.22
2018-03-21T16:37:29.044Z,54.15
2018-03-21T16:39:59.677Z,54.50
2018-03-21T16:42:30.227Z,54.65
2018-03-21T16:45:01.194Z,54.73
2018-03-21T16:47:30.875Z,54.71
2018-03-21T16:50:00.589Z,54.96
2018-03-21T16:52:30.430Z,54.96
2018-03-21T16:55:00.263Z,55.10
2018-03-21T16:57:30.863Z,55.48
2018-03-21T17:00:00.609Z,55.86
2018-03-21T17:02:30.340Z,55.78
2018-03-21T17:05:00.020Z,55.77
2018-03-21T17:07:29.888Z,56.08
2018-03-21T17:09:59.608Z,56.24
2018-03-21T17:12:29.345Z,56.57
2018-03-21T17:14:59.043Z,56.43
2018-03-21T17:17:28.790Z,56.37
2018-03-21T17:19:59.329Z,56.67
2018-03-21T17:22:29.989Z,56.52
2018-03-21T17:24:59.735Z,56.81
2018-03-21T17:27:30.465Z,57.06
2018-03-21T17:30:00.217Z,57.23
2018-03-21T17:32:30.189Z,57.28
2018-03-21T17:34:59.842Z,57.34
2018-03-21T17:37:29.572Z,57.39
2018-03-21T17:39:59.339Z,57.46
2018-03-21T17:42:29.809Z,57.29
2018-03-21T17:44:59.595Z,57.30
2018-03-21T17:47:29.309Z,57.56
2018-03-21T17:49:59.170Z,57.53
2018-03-21T17:52:28.919Z,57.58
2018-03-21T17:54:58.642Z,57.73
2018-03-21T17:57:29.069Z,57.74
2018-03-21T17:59:58.743Z,57.89
2018-03-21T18:02:29.196Z,57.71
2018-03-21T18:04:59.671Z,57.93
2018-03-21T18:07:29.436Z,58.12
2018-03-21T18:09:59.124Z,58.37
2018-03-21T18:12:28.868Z,58.47
2018-03-21T18:14:58.529Z,58.78
2018-03-21T18:17:28.772Z,59.04
2018-03-21T18:19:58.538Z,59.41
2018-03-21T18:22:28.230Z,59.41
2018-03-21T18:24:58.080Z,59.63
2018-03-21T18:27:27.744Z,59.66
2018-03-21T18:29:58.463Z,59.93
2018-03-21T18:32:28.174Z,59.87
2018-03-21T18:34:57.893Z,60.01
2018-03-21T18:37:27.534Z,60.30
2018-03-21T18:39:58.091Z,60.40
2018-03-21T18:42:28.605Z,60.51
2018-03-21T18:44:58.321Z,60.41
2018-03-21T18:47:28.181Z,60.33
2018-03-21T18:49:57.935Z,60.17
2018-03-21T18:52:27.606Z,60.26
2018-03-21T18:54:58.105Z,60.42
2018-03-21T18:57:27.823Z,60.50
2018-03-21T18:59:57.539Z,60.33
2018-03-21T19:02:27.366Z,60.43
2018-03-21T19:04:57.027Z,60.58
2018-03-21T19:07:27.044Z,60.74
2018-03-21T19:09:56.767Z,60.91
2018-03-21T19:12:26.486Z,61.26
2018-03-21T19:14:56.236Z,61.42
2018-03-21T19:17:26.709Z,61.69
2018-03-21T19:19:56.538Z,61.92
2018-03-21T19:22:26.264Z,62.00
2018-03-21T19:24:55.977Z,62.11
2018-03-21T19:27:25.730Z,62.46
2018-03-21T19:29:55.465Z,62.34
2018-03-21T19:32:25.121Z,62.35
2018-03-21T19:34:54.769Z,62.46
2018-03-21T19:37:24.862Z,62.42
2018-03-21T19:39:54.714Z,62.43
2018-03-21T19:42:24.550Z,62.40
2018-03-21T19:44:54.670Z,62.61
2018-03-21T19:47:24.323Z,62.75
2018-03-21T19:49:54.151Z,62.84
2018-03-21T19:52:23.830Z,62.66
2018-03-21T19:54:53.481Z,62.65
2018-03-21T19:57:23.200Z,62.42
2018-03-21T19:59:52.984Z,62.42
2018-03-21T20:02:22.673Z,62.48
2018-03-21T20:04:53.309Z,62.49
2018-03-21T20:07:23.063Z,62.56
2018-03-21T20:09:52.776Z,62.55
2018-03-21T20:12:22.475Z,62.42
2018-03-21T20:14:53.100Z,62.50
2018-03-21T20:17:22.903Z,62.60
2018-03-21T20:19:52.741Z,62.19
2018-03-21T20:22:22.634Z,62.31
2018-03-21T20:24:52.444Z,62.25
2018-03-21T20:27:22.408Z,62.39
2018-03-21T20:29:52.306Z,62.28
2018-03-21T20:32:22.222Z,62.21
2018-03-21T20:34:52.033Z,62.10
2018-03-21T20:37:22.602Z,62.30
2018-03-21T20:39:52.294Z,62.36
2018-03-21T20:42:22.995Z,62.02
2018-03-21T20:44:52.823Z,62.38
2018-03-21T20:47:22.709Z,62.52
2018-03-21T20:49:52.476Z,62.75
2018-03-21T20:52:22.279Z,62.94
2018-03-21T20:54:52.025Z,63.10
2018-03-21T20:57:21.743Z,63.18
2018-03-21T20:59:51.490Z,63.41
2018-03-21T21:02:22.088Z,63.49
2018-03-21T21:04:51.899Z,63.67
2018-03-21T21:07:21.770Z,63.62
2018-03-21T21:09:51.623Z,63.72
2018-03-21T21:12:21.528Z,63.53
2018-03-21T21:14:52.061Z,63.24
2018-03-21T21:17:21.878Z,63.15
2018-03-21T21:19:51.813Z,63.44
2018-03-21T21:22:21.646Z,63.45
2018-03-21T21:24:52.219Z,63.21
2018-03-21T21:27:21.977Z,63.52
2018-03-21T21:29:51.756Z,63.16
2018-03-21T21:32:21.473Z,63.07
2018-03-21T21:34:51.213Z,63.45
2018-03-21T21:37:21.060Z,63.57
2018-03-21T21:39:50.923Z,63.58
2018-03-21T21:42:21.514Z,63.67
2018-03-21T21:44:51.349Z,63.61
2018-03-21T21:47:21.061Z,63.67
2018-03-21T21:49:50.838Z,63.67
2018-03-21T21:52:20.622Z,63.64
2018-03-21T21:54:50.731Z,63.69
2018-03-21T21:57:20.509Z,63.86
2018-03-21T21:59:51.234Z,63.96
2018-03-21T22:02:21.035Z,63.48
2018-03-21T22:04:51.602Z,63.64
2018-03-21T22:07:21.391Z,63.75
2018-03-21T22:09:51.121Z,63.80
2018-03-21T22:12:24.151Z,63.79
2018-03-21T22:14:53.906Z,63.97
2018-03-21T22:17:23.714Z,63.97
2018-03-21T22:19:54.197Z,63.79
2018-03-21T22:22:23.945Z,63.97
2018-03-21T22:24:53.792Z,64.01
2018-03-21T22:27:24.303Z,64.19
2018-03-21T22:29:54.085Z,64.54
2018-03-21T22:32:24.057Z,64.49
2018-03-21T22:34:54.215Z,64.47
2018-03-21T22:37:25.560Z,64.59
2018-03-21T22:39:56.034Z,64.75
2018-03-21T22:42:26.645Z,64.80
2018-03-21T22:44:56.587Z,64.69
2018-03-21T22:47:27.919Z,64.79
2018-03-21T22:49:58.229Z,64.75
2018-03-21T22:52:30.127Z,64.82
2018-03-21T22:55:00.670Z,64.82
2018-03-21T22:57:30.579Z,64.84
2018-03-21T23:00:01.153Z,64.74
2018-03-21T23:02:31.470Z,64.73
2018-03-21T23:05:01.232Z,64.96
2018-03-21T23:07:30.985Z,65.13
2018-03-21T23:10:00.791Z,65.11
2018-03-21T23:12:30.633Z,65.07
2018-03-21T23:15:00.505Z,65.00
2018-03-21T23:17:31.102Z,64.96
2018-03-21T23:20:00.836Z,65.01
2018-03-21T23:22:30.704Z,65.01
2018-03-21T23:25:01.484Z,65.36
2018-03-21T23:27:31.207Z,65.23
2018-03-21T23:30:00.938Z,65.39
2018-03-21T23:32:30.733Z,65.30
2018-03-21T23:35:00.473Z,65.23
2018-03-21T23:37:30.210Z,64.98
2018-03-21T23:40:00.049Z,64.84
2018-03-21T23:42:29.766Z,65.10
2018-03-21T23:44:59.489Z,65.31
2018-03-21T23:47:29.288Z,65.29
2018-03-21T23:49:59.282Z,64.93
2018-03-21T23:52:29.897Z,64.91
2018-03-21T23:54:59.609Z,64.93
2018-03-21T23:57:30.185Z,64.51
